DTW weather

Detroit Metropolitan Wayne County Airport
Detroit, Michigan, United States

Public forecast

Using degrees Fahrenheit for public forecast. Weather courtesy of forecast.io.

METAR (pilot weather report)

Retrieved 2017/10/22 09:53 UTC (48 minutes ago):

KDTW 220953Z 13003KT 10SM FEW140 BKN200 12/09 A3017 RMK AO2 SLP215 T01220094

TAF (pilot weather forecast)

Retrieved 2017/10/22 06:24 UTC (4 hours ago):

TAF KDTW 220522Z 2206/2312 16005KT P6SM BKN200 FM221600 17013KT P6SM FEW040 BKN150 FM222200 16010KT P6SM OVC120 FM230300 18008KT P6SM OVC050